createdAt,value
2017-12-04T00:01:32.455Z,36.53
2017-12-04T00:04:02.671Z,36.80
2017-12-04T00:06:32.549Z,34.77
2017-12-04T00:09:02.551Z,35.10
2017-12-04T00:11:31.455Z,36.13
2017-12-04T00:14:00.928Z,32.53
2017-12-04T00:16:30.346Z,34.77
2017-12-04T00:18:59.780Z,34.87
2017-12-04T00:21:28.575Z,32.70
2017-12-04T00:23:57.831Z,34.23
2017-12-04T00:26:27.251Z,32.60
2017-12-04T00:28:56.694Z,33.57
2017-12-04T00:31:26.904Z,30.30
2017-12-04T00:33:56.334Z,32.17
2017-12-04T00:36:26.553Z,32.67
2017-12-04T00:38:56.772Z,29.57
2017-12-04T00:41:26.965Z,29.17
2017-12-04T00:43:56.784Z,28.43
2017-12-04T00:46:26.203Z,30.40
2017-12-04T00:48:56.720Z,28.87
2017-12-04T00:51:26.205Z,32.33
2017-12-04T00:53:55.432Z,30.37
2017-12-04T00:56:24.543Z,32.63
2017-12-04T00:58:54.568Z,29.63
2017-12-04T01:01:24.453Z,31.20
2017-12-04T01:03:53.897Z,31.17
2017-12-04T01:06:23.343Z,28.60
2017-12-04T01:08:52.607Z,30.60
2017-12-04T01:11:22.039Z,31.27
2017-12-04T01:13:51.472Z,32.70
2017-12-04T01:16:21.313Z,33.50
2017-12-04T01:18:50.544Z,33.43
2017-12-04T01:21:19.801Z,36.43
2017-12-04T01:23:50.032Z,35.30
2017-12-04T01:26:20.268Z,33.63
2017-12-04T01:28:50.875Z,35.47
2017-12-04T01:31:21.261Z,38.00
2017-12-04T01:33:51.975Z,33.80
2017-12-04T01:36:21.211Z,34.87
2017-12-04T01:38:50.664Z,36.00
2017-12-04T01:41:20.380Z,36.40
2017-12-04T01:43:49.815Z,37.33
2017-12-04T01:46:19.041Z,35.00
2017-12-04T01:48:49.521Z,37.40
2017-12-04T01:51:18.987Z,35.60
2017-12-04T01:53:49.559Z,34.27
2017-12-04T01:56:18.999Z,33.80
2017-12-04T01:58:48.103Z,34.70
2017-12-04T02:01:17.575Z,36.77
2017-12-04T02:03:46.169Z,34.27
2017-12-04T02:06:15.620Z,35.20
2017-12-04T02:08:44.941Z,37.20
2017-12-04T02:11:14.394Z,35.63
2017-12-04T02:13:43.830Z,36.47
2017-12-04T02:16:13.561Z,38.10
2017-12-04T02:18:43.406Z,33.77
2017-12-04T02:21:12.513Z,34.30
2017-12-04T02:23:41.595Z,33.93
2017-12-04T02:26:10.374Z,33.63
2017-12-04T02:28:39.142Z,34.97
2017-12-04T02:31:08.589Z,34.73
2017-12-04T02:33:37.360Z,32.73
2017-12-04T02:36:07.369Z,34.17
2017-12-04T02:38:37.077Z,30.90
2017-12-04T02:41:05.650Z,32.90
2017-12-04T02:43:34.224Z,31.80
2017-12-04T02:46:03.307Z,36.27
2017-12-04T02:48:31.893Z,35.20
2017-12-04T02:51:01.944Z,33.97
2017-12-04T02:53:30.728Z,31.43
2017-12-04T02:55:59.641Z,34.07
2017-12-04T02:58:28.560Z,30.97
2017-12-04T03:00:58.834Z,32.93
2017-12-04T03:03:27.749Z,28.93
2017-12-04T03:05:57.030Z,30.73
2017-12-04T03:08:26.734Z,28.90
2017-12-04T03:10:56.163Z,29.63
2017-12-04T03:13:25.617Z,28.67
2017-12-04T03:15:55.050Z,29.47
2017-12-04T03:18:24.160Z,29.03
2017-12-04T03:20:52.931Z,28.77
2017-12-04T03:23:22.443Z,25.53
2017-12-04T03:25:51.022Z,23.20
2017-12-04T03:28:20.120Z,22.23
2017-12-04T03:30:48.703Z,21.80
2017-12-04T03:33:17.465Z,20.17
2017-12-04T03:35:46.045Z,19.37
2017-12-04T03:38:14.983Z,19.23
2017-12-04T03:40:43.568Z,19.43
2017-12-04T03:43:12.351Z,19.47
2017-12-04T03:45:40.961Z,19.77
2017-12-04T03:48:10.196Z,20.10
2017-12-04T03:50:39.636Z,17.57
2017-12-04T03:53:09.448Z,19.40
2017-12-04T03:55:38.885Z,17.77
2017-12-04T03:58:08.320Z,16.57
2017-12-04T04:00:38.052Z,15.00
2017-12-04T04:03:07.474Z,16.53
2017-12-04T04:05:36.719Z,15.70
2017-12-04T04:08:06.922Z,13.07
2017-12-04T04:10:36.347Z,12.80
2017-12-04T04:13:05.789Z,12.83
2017-12-04T04:15:35.487Z,9.90
2017-12-04T04:18:04.911Z,10.20
2017-12-04T04:20:34.347Z,11.30
2017-12-04T04:23:04.028Z,10.67
2017-12-04T04:25:33.465Z,10.33
2017-12-04T04:28:03.538Z,11.10
2017-12-04T04:30:33.095Z,11.63
2017-12-04T04:33:03.293Z,9.17
2017-12-04T04:35:32.742Z,10.20
2017-12-04T04:38:03.246Z,9.97
2017-12-04T04:40:32.768Z,9.93
2017-12-04T04:43:03.336Z,11.30
2017-12-04T04:45:32.778Z,13.70
2017-12-04T04:48:02.219Z,14.13
2017-12-04T04:50:31.423Z,14.30
2017-12-04T04:53:00.148Z,15.27
2017-12-04T04:55:28.854Z,16.97
2017-12-04T04:57:59.318Z,16.53
2017-12-04T05:00:28.800Z,17.43
2017-12-04T05:02:58.479Z,16.60
2017-12-04T05:05:28.128Z,16.10
2017-12-04T05:07:58.310Z,15.27
2017-12-04T05:10:27.419Z,15.50
2017-12-04T05:12:57.182Z,16.63
2017-12-04T05:15:26.607Z,18.10
2017-12-04T05:17:56.038Z,16.30
2017-12-04T05:20:25.601Z,18.30
2017-12-04T05:22:54.645Z,20.33
2017-12-04T05:25:24.855Z,18.43
2017-12-04T05:27:54.284Z,18.83
2017-12-04T05:30:24.489Z,19.57
2017-12-04T05:32:54.503Z,18.63
2017-12-04T05:35:23.939Z,18.77
2017-12-04T05:37:53.362Z,19.33
2017-12-04T05:40:23.386Z,19.00
2017-12-04T05:42:52.808Z,18.93
2017-12-04T05:45:22.114Z,19.47
2017-12-04T05:47:51.901Z,18.33
2017-12-04T05:50:21.333Z,18.27
2017-12-04T05:52:50.571Z,18.57
2017-12-04T05:55:20.807Z,19.17
2017-12-04T05:57:50.234Z,19.70
2017-12-04T06:00:19.689Z,22.57
2017-12-04T06:02:50.488Z,21.67
2017-12-04T06:05:19.911Z,20.73
2017-12-04T06:07:49.334Z,23.23
2017-12-04T06:10:19.860Z,21.80
2017-12-04T06:12:50.071Z,21.40
2017-12-04T06:15:19.514Z,20.33
2017-12-04T06:17:49.342Z,20.03
2017-12-04T06:20:18.794Z,18.90
2017-12-04T06:22:48.037Z,19.23
2017-12-04T06:25:17.867Z,17.53
2017-12-04T06:27:47.512Z,15.80
2017-12-04T06:30:16.980Z,16.43
2017-12-04T06:32:46.824Z,16.20
2017-12-04T06:35:16.279Z,14.23
2017-12-04T06:37:46.040Z,16.17
2017-12-04T06:40:15.515Z,14.90
2017-12-04T06:42:44.951Z,15.20
2017-12-04T06:45:14.741Z,14.33
2017-12-04T06:47:43.964Z,14.27
2017-12-04T06:50:13.392Z,15.10
2017-12-04T06:52:43.632Z,14.93
2017-12-04T06:55:13.623Z,14.70
2017-12-04T06:57:44.217Z,14.83
2017-12-04T07:00:13.638Z,15.37
2017-12-04T07:02:42.870Z,16.03
2017-12-04T07:05:13.848Z,16.50
2017-12-04T07:07:43.286Z,16.67
2017-12-04T07:10:12.714Z,15.67
2017-12-04T07:12:42.476Z,16.60
2017-12-04T07:15:11.904Z,15.63
2017-12-04T07:17:41.342Z,14.97
2017-12-04T07:20:11.086Z,15.00
2017-12-04T07:22:40.532Z,14.57
2017-12-04T07:25:09.956Z,15.00
2017-12-04T07:27:39.435Z,14.70
2017-12-04T07:30:08.878Z,14.70
2017-12-04T07:32:38.320Z,15.77
2017-12-04T07:35:08.128Z,16.43
2017-12-04T07:37:37.435Z,16.37
2017-12-04T07:40:06.873Z,17.47
2017-12-04T07:42:37.072Z,16.57
2017-12-04T07:45:06.494Z,17.43
2017-12-04T07:47:36.714Z,16.67
2017-12-04T07:50:07.391Z,16.47
2017-12-04T07:52:36.823Z,15.47
2017-12-04T07:55:06.267Z,16.93
2017-12-04T07:57:36.827Z,15.53
2017-12-04T08:00:06.259Z,14.97
2017-12-04T08:02:35.298Z,15.07
2017-12-04T08:05:05.320Z,14.37
2017-12-04T08:07:34.573Z,14.00
2017-12-04T08:10:03.814Z,13.03
2017-12-04T08:12:34.378Z,12.53
2017-12-04T08:15:03.619Z,10.60
2017-12-04T08:17:33.059Z,10.73
2017-12-04T08:20:02.550Z,11.60
2017-12-04T08:22:32.559Z,10.80
2017-12-04T08:25:02.578Z,9.47
2017-12-04T08:27:32.608Z,7.93
2017-12-04T08:30:03.825Z,10.03
2017-12-04T08:32:33.256Z,9.57
2017-12-04T08:35:03.279Z,10.07
2017-12-04T08:37:32.713Z,9.57
2017-12-04T08:40:02.126Z,9.83
2017-12-04T08:42:31.825Z,10.00
2017-12-04T08:45:01.165Z,8.30
2017-12-04T08:47:30.588Z,8.87
2017-12-04T08:50:00.603Z,8.97
2017-12-04T08:52:30.795Z,8.43
2017-12-04T08:55:00.571Z,8.53
2017-12-04T08:57:29.996Z,9.23
2017-12-04T08:59:59.102Z,8.03
2017-12-04T09:02:28.811Z,8.80
2017-12-04T09:04:58.231Z,7.77
2017-12-04T09:07:27.327Z,8.13
2017-12-04T09:09:56.849Z,9.83
2017-12-04T09:12:25.747Z,8.00
2017-12-04T09:14:56.314Z,8.17
2017-12-04T09:17:25.222Z,9.57
2017-12-04T09:19:54.644Z,7.83
2017-12-04T09:22:23.766Z,8.53
2017-12-04T09:24:53.987Z,7.70
2017-12-04T09:27:24.560Z,7.07
2017-12-04T09:29:53.995Z,8.63
2017-12-04T09:32:22.781Z,8.10
2017-12-04T09:34:53.068Z,7.30
2017-12-04T09:37:22.910Z,8.53
2017-12-04T09:39:52.828Z,7.57
2017-12-04T09:42:22.600Z,7.50
2017-12-04T09:44:51.703Z,7.23
2017-12-04T09:47:22.129Z,7.43
2017-12-04T09:49:51.707Z,7.00
2017-12-04T09:52:21.886Z,8.20
2017-12-04T09:54:51.323Z,7.63
2017-12-04T09:57:21.216Z,8.27
2017-12-04T09:59:50.655Z,8.43
2017-12-04T10:02:20.995Z,7.47
2017-12-04T10:04:50.233Z,8.17
2017-12-04T10:07:19.672Z,8.13
2017-12-04T10:09:49.891Z,9.27
2017-12-04T10:12:19.321Z,8.87
2017-12-04T10:14:48.742Z,9.43
2017-12-04T10:17:18.561Z,8.73
2017-12-04T10:19:47.652Z,8.27
2017-12-04T10:22:16.402Z,8.27
2017-12-04T10:24:46.778Z,8.10
2017-12-04T10:27:16.203Z,7.50
2017-12-04T10:29:45.621Z,8.33
2017-12-04T10:32:14.748Z,7.30
2017-12-04T10:34:43.986Z,7.17
2017-12-04T10:37:13.130Z,7.47
2017-12-04T10:39:43.154Z,8.13
2017-12-04T10:42:12.600Z,6.80
2017-12-04T10:44:41.831Z,6.67
2017-12-04T10:47:11.338Z,7.57
2017-12-04T10:49:40.275Z,7.73
2017-12-04T10:52:09.743Z,8.07
2017-12-04T10:54:39.615Z,8.03
2017-12-04T10:57:08.517Z,7.67
2017-12-04T10:59:37.440Z,7.33
2017-12-04T11:02:06.272Z,7.20
2017-12-04T11:04:35.320Z,6.77
2017-12-04T11:07:04.756Z,7.53
2017-12-04T11:09:33.739Z,7.10
2017-12-04T11:12:03.938Z,7.00
2017-12-04T11:14:34.458Z,8.40
2017-12-04T11:17:03.945Z,7.93
2017-12-04T11:19:33.552Z,6.80
2017-12-04T11:22:03.162Z,6.73
2017-12-04T11:24:32.394Z,7.50
2017-12-04T11:27:02.438Z,7.57
2017-12-04T11:29:31.920Z,7.83
2017-12-04T11:32:01.785Z,7.40
2017-12-04T11:34:31.420Z,8.23
2017-12-04T11:37:01.229Z,8.13
2017-12-04T11:39:30.329Z,6.07
2017-12-04T11:41:59.769Z,6.57
2017-12-04T11:44:29.644Z,6.73
2017-12-04T11:46:58.753Z,6.70
2017-12-04T11:49:28.175Z,6.53
2017-12-04T11:51:58.522Z,8.97
2017-12-04T11:54:27.962Z,6.27
2017-12-04T11:56:57.048Z,6.53
2017-12-04T11:59:26.749Z,6.93
2017-12-04T12:01:56.187Z,6.90
2017-12-04T12:04:25.618Z,7.70
2017-12-04T12:06:55.363Z,6.40
2017-12-04T12:09:24.631Z,5.67
2017-12-04T12:11:54.655Z,6.27
2017-12-04T12:14:23.927Z,6.13
2017-12-04T12:16:53.154Z,6.00
2017-12-04T12:19:22.581Z,7.20
2017-12-04T12:21:52.203Z,6.27
2017-12-04T12:24:21.619Z,6.80
2017-12-04T12:26:51.063Z,7.10
2017-12-04T12:29:21.408Z,6.13
2017-12-04T12:31:50.846Z,5.60
2017-12-04T12:34:20.266Z,5.23
2017-12-04T12:36:50.779Z,4.93
2017-12-04T12:39:20.265Z,6.50
2017-12-04T12:41:49.679Z,5.63
2017-12-04T12:44:19.478Z,5.60
2017-12-04T12:46:48.986Z,5.37
2017-12-04T12:49:18.077Z,5.13
2017-12-04T12:51:47.567Z,6.47
2017-12-04T12:54:17.016Z,5.57
2017-12-04T12:56:46.439Z,5.57
2017-12-04T12:59:15.872Z,6.53
2017-12-04T13:01:45.296Z,5.90
2017-12-04T13:04:14.732Z,4.97
2017-12-04T13:06:44.521Z,5.10
2017-12-04T13:09:13.980Z,5.30
2017-12-04T13:11:44.329Z,5.90
2017-12-04T13:14:13.768Z,5.30
2017-12-04T13:16:43.199Z,5.83
2017-12-04T13:19:12.680Z,5.30
2017-12-04T13:21:42.099Z,5.37
2017-12-04T13:24:11.536Z,5.07
2017-12-04T13:26:42.100Z,4.93
2017-12-04T13:29:11.524Z,6.50
2017-12-04T13:31:40.986Z,5.87
2017-12-04T13:34:21.974Z,5.50
2017-12-04T13:36:50.343Z,5.57
2017-12-04T13:39:19.375Z,6.20
2017-12-04T13:41:48.627Z,5.67
2017-12-04T13:44:18.073Z,5.07
2017-12-04T13:46:47.479Z,5.70
2017-12-04T13:49:17.268Z,5.80
2017-12-04T13:51:46.723Z,5.27
2017-12-04T13:54:16.152Z,5.57
2017-12-04T13:56:45.408Z,5.47
2017-12-04T13:59:14.820Z,4.90
2017-12-04T14:01:44.071Z,5.27
2017-12-04T14:04:13.809Z,5.33
2017-12-04T14:06:43.452Z,5.33
2017-12-04T14:09:12.918Z,5.30
2017-12-04T14:11:42.343Z,4.60
2017-12-04T14:14:11.964Z,5.17
2017-12-04T14:16:41.724Z,5.63
2017-12-04T14:19:11.161Z,6.00
2017-12-04T14:21:40.584Z,5.53
2017-12-04T14:24:10.019Z,4.83
2017-12-04T14:26:39.461Z,5.00
2017-12-04T14:29:08.887Z,6.10
2017-12-04T14:31:38.459Z,5.47
2017-12-04T14:34:07.892Z,5.90
2017-12-04T14:36:37.326Z,6.63
2017-12-04T14:39:07.906Z,5.93
2017-12-04T14:41:37.325Z,6.10
2017-12-04T14:44:06.748Z,6.73
2017-12-04T14:46:35.903Z,5.70
2017-12-04T14:49:04.806Z,5.73
2017-12-04T14:51:33.588Z,6.20
2017-12-04T14:54:02.511Z,6.27
2017-12-04T14:56:31.373Z,6.10
2017-12-04T14:59:00.119Z,5.93
2017-12-04T15:01:29.361Z,6.07
2017-12-04T15:03:58.128Z,6.87
2017-12-04T15:06:27.226Z,6.73
2017-12-04T15:08:56.323Z,6.60
2017-12-04T15:11:24.887Z,5.60
2017-12-04T15:13:53.287Z,6.03
2017-12-04T15:16:22.570Z,5.90
2017-12-04T15:18:51.334Z,6.30
2017-12-04T15:21:21.271Z,6.73
2017-12-04T15:23:49.964Z,6.97
2017-12-04T15:26:19.674Z,6.80
2017-12-04T15:28:48.244Z,6.53
2017-12-04T15:31:17.028Z,6.90
2017-12-04T15:33:45.601Z,6.53
2017-12-04T15:36:14.962Z,6.40
2017-12-04T15:38:43.871Z,5.23
2017-12-04T15:41:12.671Z,5.37
2017-12-04T15:43:41.987Z,6.43
2017-12-04T15:46:11.530Z,9.40
2017-12-04T15:48:40.683Z,6.87
2017-12-04T15:51:09.419Z,6.63
2017-12-04T15:53:38.507Z,7.73
2017-12-04T15:56:07.266Z,8.17
2017-12-04T15:58:36.802Z,6.57
2017-12-04T16:01:05.900Z,6.83
2017-12-04T16:03:34.793Z,7.40
2017-12-04T16:06:03.563Z,6.97
2017-12-04T16:08:32.344Z,6.60
2017-12-04T16:11:00.947Z,7.03
2017-12-04T16:13:30.092Z,7.33
2017-12-04T16:16:00.167Z,7.43
2017-12-04T16:18:29.696Z,7.20
2017-12-04T16:20:59.127Z,6.70
2017-12-04T16:23:29.502Z,7.90
2017-12-04T16:25:58.927Z,8.20
2017-12-04T16:28:28.013Z,6.93
2017-12-04T16:30:56.938Z,13.20
2017-12-04T16:33:25.538Z,8.90
2017-12-04T16:35:58.607Z,6.80
2017-12-04T16:38:27.859Z,7.87
2017-12-04T16:40:56.754Z,6.70
2017-12-04T16:43:26.100Z,8.63
2017-12-04T16:45:55.715Z,7.43
2017-12-04T16:48:24.467Z,6.40
2017-12-04T16:50:54.813Z,8.10
2017-12-04T16:53:23.904Z,7.03
2017-12-04T16:55:53.031Z,8.03
2017-12-04T16:58:24.738Z,7.37
2017-12-04T17:00:53.327Z,9.03
2017-12-04T17:03:22.444Z,7.83
2017-12-04T17:05:51.743Z,8.00
2017-12-04T17:08:20.494Z,7.83
2017-12-04T17:10:49.914Z,7.60
2017-12-04T17:13:19.821Z,6.40
2017-12-04T17:15:50.456Z,6.63
2017-12-04T17:18:20.159Z,7.17
2017-12-04T17:20:49.454Z,6.73
2017-12-04T17:23:18.548Z,6.53
2017-12-04T17:25:48.479Z,6.40
2017-12-04T17:28:17.790Z,6.20
2017-12-04T17:30:47.201Z,7.27
2017-12-04T17:33:16.423Z,5.97
2017-12-04T17:35:45.856Z,7.20
2017-12-04T17:38:15.380Z,7.37
2017-12-04T17:40:44.683Z,5.93
2017-12-04T17:43:14.140Z,6.00
2017-12-04T17:45:43.611Z,7.67
2017-12-04T17:48:13.167Z,6.57
2017-12-04T17:50:43.152Z,7.93
2017-12-04T17:53:13.264Z,9.03
2017-12-04T17:55:42.530Z,7.70
2017-12-04T17:58:12.262Z,8.07
2017-12-04T18:00:41.605Z,8.40
2017-12-04T18:03:34.258Z,8.60
2017-12-04T18:06:03.745Z,8.93
2017-12-04T18:08:34.342Z,9.93
2017-12-04T18:11:03.795Z,9.17
2017-12-04T18:13:36.170Z,8.83
2017-12-04T18:16:05.244Z,9.30
2017-12-04T18:21:14.186Z,9.67
2017-12-04T18:23:42.740Z,9.43
2017-12-04T18:26:12.231Z,10.47
2017-12-04T18:28:41.188Z,10.47
2017-12-04T18:31:10.302Z,10.50
2017-12-04T18:33:38.864Z,11.10
2017-12-04T18:36:07.443Z,11.83
2017-12-04T18:38:36.219Z,11.43
2017-12-04T18:41:04.991Z,11.57
2017-12-04T18:43:33.750Z,11.43
2017-12-04T18:46:03.299Z,11.60
2017-12-04T18:48:32.390Z,11.67
2017-12-04T18:51:01.551Z,11.83
2017-12-04T18:53:31.082Z,13.37
2017-12-04T18:55:59.658Z,12.57
2017-12-04T18:58:28.239Z,11.50
2017-12-04T19:00:57.012Z,12.47
2017-12-04T19:03:25.595Z,13.23
2017-12-04T19:05:54.747Z,15.90
2017-12-04T19:08:23.859Z,15.33
2017-12-04T19:10:52.689Z,12.70
2017-12-04T19:13:21.507Z,13.97
2017-12-04T19:15:50.467Z,14.67
2017-12-04T19:18:19.242Z,14.00
2017-12-04T19:20:48.571Z,15.10
2017-12-04T19:23:17.422Z,14.50
2017-12-04T19:25:45.997Z,14.37
2017-12-04T19:28:15.253Z,15.90
2017-12-04T19:30:43.798Z,16.33
2017-12-04T19:33:12.409Z,14.97
2017-12-04T19:35:41.559Z,15.90
2017-12-04T19:38:10.327Z,16.60
2017-12-04T19:40:39.172Z,17.87
2017-12-04T19:43:08.102Z,16.83
2017-12-04T19:45:36.880Z,17.47
2017-12-04T19:48:06.496Z,15.90
2017-12-04T19:50:35.377Z,15.57
2017-12-04T19:53:03.924Z,16.87
2017-12-04T19:55:33.812Z,16.67
2017-12-04T19:58:03.024Z,16.33
2017-12-04T20:00:32.507Z,18.03
2017-12-04T20:03:01.727Z,16.37
2017-12-04T20:05:31.754Z,15.67
2017-12-04T20:08:00.605Z,17.33
2017-12-04T20:10:29.167Z,17.10
2017-12-04T20:12:57.860Z,19.77
2017-12-04T20:15:26.779Z,18.80
2017-12-04T20:17:55.667Z,20.30
2017-12-04T20:20:24.775Z,20.03
2017-12-04T20:22:53.518Z,20.60
2017-12-04T20:25:22.813Z,20.57
2017-12-04T20:27:51.722Z,21.03
2017-12-04T20:30:20.516Z,21.47
2017-12-04T20:32:49.678Z,21.40
2017-12-04T20:35:18.800Z,20.53
2017-12-04T20:37:47.224Z,20.40
2017-12-04T20:40:16.743Z,21.83
2017-12-04T20:42:45.688Z,22.40
2017-12-04T20:45:14.448Z,24.60
2017-12-04T20:47:43.364Z,22.70
2017-12-04T20:50:13.058Z,24.77
2017-12-04T20:52:41.680Z,24.73
2017-12-04T20:55:10.447Z,24.37
2017-12-04T20:57:39.355Z,24.33
2017-12-04T21:00:08.382Z,27.77
2017-12-04T21:02:36.918Z,25.37
2017-12-04T21:05:05.853Z,26.80
2017-12-04T21:07:47.019Z,25.87
2017-12-04T21:10:28.231Z,26.73
2017-12-04T21:13:08.615Z,28.40
2017-12-04T21:18:37.382Z,27.43
2017-12-04T21:21:06.624Z,25.60
2017-12-04T21:23:35.593Z,27.80
2017-12-04T21:26:04.176Z,27.43
2017-12-04T21:28:33.382Z,27.63
2017-12-04T21:31:02.991Z,27.50
2017-12-04T21:33:31.771Z,27.90
2017-12-04T21:36:01.389Z,30.03
2017-12-04T21:38:30.389Z,29.47
2017-12-04T21:40:59.471Z,28.97
2017-12-04T21:43:28.070Z,29.10
2017-12-04T21:45:56.883Z,29.60
2017-12-04T21:48:26.966Z,29.70
2017-12-04T21:50:56.041Z,32.97
2017-12-04T21:53:25.600Z,30.80
2017-12-04T21:55:54.365Z,28.60
2017-12-04T21:58:24.221Z,30.17
2017-12-04T22:00:52.992Z,32.23
2017-12-04T22:03:22.950Z,28.90
2017-12-04T22:05:52.083Z,31.20
2017-12-04T22:08:20.650Z,29.77
2017-12-04T22:10:49.211Z,33.10
2017-12-04T22:13:19.088Z,30.00
2017-12-04T22:15:47.877Z,31.57
2017-12-04T22:18:16.688Z,32.33
2017-12-04T22:20:45.688Z,31.30
2017-12-04T22:23:14.453Z,28.87
2017-12-04T22:25:43.042Z,31.70
2017-12-04T22:28:12.723Z,30.57
2017-12-04T22:30:41.332Z,31.07
2017-12-04T22:33:10.134Z,29.10
2017-12-04T22:35:39.207Z,28.10
2017-12-04T22:38:07.795Z,30.27
2017-12-04T22:40:36.457Z,30.07
2017-12-04T22:43:06.453Z,29.40
2017-12-04T22:45:35.589Z,30.40
2017-12-04T22:48:04.371Z,30.67
2017-12-04T22:50:33.214Z,30.13
2017-12-04T22:53:02.134Z,29.33
2017-12-04T22:55:30.937Z,30.40
2017-12-04T22:58:00.166Z,28.93
2017-12-04T23:00:31.017Z,28.13
2017-12-04T23:02:59.596Z,30.30
2017-12-04T23:05:30.436Z,31.50
2017-12-04T23:07:59.180Z,28.40
2017-12-04T23:10:28.285Z,28.97
2017-12-04T23:12:57.675Z,28.83
2017-12-04T23:15:26.247Z,29.13
2017-12-04T23:17:55.012Z,28.60
2017-12-04T23:20:24.368Z,29.13
2017-12-04T23:22:52.956Z,28.77
2017-12-04T23:25:21.848Z,28.60
2017-12-04T23:27:50.956Z,30.30
2017-12-04T23:30:19.543Z,29.80
2017-12-04T23:32:48.348Z,31.07
2017-12-04T23:35:18.419Z,31.63
2017-12-04T23:37:47.184Z,31.00
2017-12-04T23:40:16.734Z,30.00
2017-12-04T23:42:46.439Z,30.77
2017-12-04T23:45:15.217Z,29.13
2017-12-04T23:47:45.423Z,30.97
2017-12-04T23:50:14.660Z,28.13
2017-12-04T23:52:44.085Z,28.17
2017-12-04T23:55:13.308Z,30.03
2017-12-04T23:57:42.695Z,27.93
